sensor_id;sensor_type;location;lat;lon;timestamp;pressure;altitude;pressure_sealevel;temperature;humidity
43147;BME280;28752;48.266;7.402;2023-04-26T00:02:22;99525.09;;;9.21;87.24
43147;BME280;28752;48.266;7.402;2023-04-26T00:04:54;99521.34;;;9.24;87.02
43147;BME280;28752;48.266;7.402;2023-04-26T00:07:21;99523.44;;;9.30;86.83
43147;BME280;28752;48.266;7.402;2023-04-26T00:09:47;99517.59;;;9.27;86.62
43147;BME280;28752;48.266;7.402;2023-04-26T00:12:13;99517.19;;;9.31;86.09
43147;BME280;28752;48.266;7.402;2023-04-26T00:14:38;99516.06;;;9.24;87.24
43147;BME280;28752;48.266;7.402;2023-04-26T00:17:03;99520.13;;;9.28;86.54
43147;BME280;28752;48.266;7.402;2023-04-26T00:19:29;99514.44;;;9.33;85.64
43147;BME280;28752;48.266;7.402;2023-04-26T00:21:54;99508.25;;;9.13;86.16
43147;BME280;28752;48.266;7.402;2023-04-26T00:24:20;99506.03;;;9.18;86.25
43147;BME280;28752;48.266;7.402;2023-04-26T00:26:45;99508.41;;;9.11;86.60
43147;BME280;28752;48.266;7.402;2023-04-26T00:29:11;99518.66;;;9.04;87.07
43147;BME280;28752;48.266;7.402;2023-04-26T00:31:36;99513.91;;;8.98;87.08
43147;BME280;28752;48.266;7.402;2023-04-26T00:34:01;99518.50;;;8.96;86.76
43147;BME280;28752;48.266;7.402;2023-04-26T00:36:27;99516.69;;;8.97;86.83
43147;BME280;28752;48.266;7.402;2023-04-26T00:38:52;99519.91;;;9.00;86.96
43147;BME280;28752;48.266;7.402;2023-04-26T00:41:17;99521.97;;;8.97;87.53
43147;BME280;28752;48.266;7.402;2023-04-26T00:43:43;99521.75;;;9.10;86.85
43147;BME280;28752;48.266;7.402;2023-04-26T00:46:09;99521.28;;;9.04;87.50
43147;BME280;28752;48.266;7.402;2023-04-26T00:48:37;99523.50;;;8.99;87.53
43147;BME280;28752;48.266;7.402;2023-04-26T00:51:04;99518.97;;;9.11;86.88
43147;BME280;28752;48.266;7.402;2023-04-26T00:53:31;99522.03;;;9.16;86.30
43147;BME280;28752;48.266;7.402;2023-04-26T00:55:58;99522.16;;;9.05;86.79
43147;BME280;28752;48.266;7.402;2023-04-26T00:58:24;99524.56;;;8.87;88.17
43147;BME280;28752;48.266;7.402;2023-04-26T01:00:50;99537.66;;;8.98;87.38
43147;BME280;28752;48.266;7.402;2023-04-26T01:03:15;99532.38;;;8.98;87.29
43147;BME280;28752;48.266;7.402;2023-04-26T01:05:42;99524.34;;;9.00;87.05
43147;BME280;28752;48.266;7.402;2023-04-26T01:08:07;99517.91;;;8.93;85.44
43147;BME280;28752;48.266;7.402;2023-04-26T01:10:33;99518.16;;;8.89;84.46
43147;BME280;28752;48.266;7.402;2023-04-26T01:12:59;99520.69;;;8.91;83.42
43147;BME280;28752;48.266;7.402;2023-04-26T01:15:25;99519.03;;;8.90;82.87
43147;BME280;28752;48.266;7.402;2023-04-26T01:17:52;99512.81;;;8.70;83.24
43147;BME280;28752;48.266;7.402;2023-04-26T01:20:17;99516.19;;;8.82;83.39
43147;BME280;28752;48.266;7.402;2023-04-26T01:22:43;99513.47;;;8.93;84.60
43147;BME280;28752;48.266;7.402;2023-04-26T01:25:11;99517.22;;;8.91;85.58
43147;BME280;28752;48.266;7.402;2023-04-26T01:27:36;99512.50;;;8.94;84.82
43147;BME280;28752;48.266;7.402;2023-04-26T01:30:03;99508.34;;;9.01;84.04
43147;BME280;28752;48.266;7.402;2023-04-26T01:32:28;99503.25;;;9.10;83.21
43147;BME280;28752;48.266;7.402;2023-04-26T01:34:53;99500.75;;;9.08;83.77
43147;BME280;28752;48.266;7.402;2023-04-26T01:37:19;99509.63;;;9.07;83.56
43147;BME280;28752;48.266;7.402;2023-04-26T01:39:44;99516.19;;;9.13;82.74
43147;BME280;28752;48.266;7.402;2023-04-26T01:42:11;99515.19;;;9.14;82.23
43147;BME280;28752;48.266;7.402;2023-04-26T01:44:36;99517.06;;;8.92;82.39
43147;BME280;28752;48.266;7.402;2023-04-26T01:47:01;99514.56;;;8.91;81.32
43147;BME280;28752;48.266;7.402;2023-04-26T01:49:27;99512.31;;;8.86;81.26
43147;BME280;28752;48.266;7.402;2023-04-26T01:51:52;99517.47;;;8.87;80.92
43147;BME280;28752;48.266;7.402;2023-04-26T01:54:18;99511.50;;;8.85;81.31
43147;BME280;28752;48.266;7.402;2023-04-26T01:56:43;99507.03;;;8.76;81.71
43147;BME280;28752;48.266;7.402;2023-04-26T01:59:08;99517.22;;;8.60;82.49
43147;BME280;28752;48.266;7.402;2023-04-26T02:01:34;99516.44;;;8.48;82.73
43147;BME280;28752;48.266;7.402;2023-04-26T02:03:59;99514.16;;;8.43;82.31
43147;BME280;28752;48.266;7.402;2023-04-26T02:06:24;99517.53;;;8.45;81.44
43147;BME280;28752;48.266;7.402;2023-04-26T02:08:51;99510.75;;;8.31;81.72
43147;BME280;28752;48.266;7.402;2023-04-26T02:11:16;99506.69;;;8.27;82.60
43147;BME280;28752;48.266;7.402;2023-04-26T02:13:42;99518.09;;;8.28;83.39
43147;BME280;28752;48.266;7.402;2023-04-26T02:16:08;99513.00;;;8.15;83.55
43147;BME280;28752;48.266;7.402;2023-04-26T02:18:33;99510.63;;;8.12;84.13
43147;BME280;28752;48.266;7.402;2023-04-26T02:20:58;99503.50;;;8.03;84.37
43147;BME280;28752;48.266;7.402;2023-04-26T02:23:24;99516.38;;;8.17;83.82
43147;BME280;28752;48.266;7.402;2023-04-26T02:25:49;99518.28;;;8.15;83.82
43147;BME280;28752;48.266;7.402;2023-04-26T02:28:15;99520.47;;;8.10;83.76
43147;BME280;28752;48.266;7.402;2023-04-26T02:30:41;99517.31;;;7.95;84.94
43147;BME280;28752;48.266;7.402;2023-04-26T02:33:07;99513.72;;;7.96;85.52
43147;BME280;28752;48.266;7.402;2023-04-26T02:35:35;99510.22;;;7.95;84.80
43147;BME280;28752;48.266;7.402;2023-04-26T02:38:04;99515.94;;;7.79;85.82
43147;BME280;28752;48.266;7.402;2023-04-26T02:40:29;99523.38;;;7.74;85.33
43147;BME280;28752;48.266;7.402;2023-04-26T02:42:55;99515.41;;;7.64;85.08
43147;BME280;28752;48.266;7.402;2023-04-26T02:45:21;99506.84;;;7.72;84.39
43147;BME280;28752;48.266;7.402;2023-04-26T02:47:46;99502.63;;;7.81;84.14
43147;BME280;28752;48.266;7.402;2023-04-26T02:50:11;99510.41;;;7.82;84.02
43147;BME280;28752;48.266;7.402;2023-04-26T02:52:37;99506.97;;;7.82;84.03
43147;BME280;28752;48.266;7.402;2023-04-26T02:55:02;99508.91;;;7.69;85.46
43147;BME280;28752;48.266;7.402;2023-04-26T02:57:29;99510.53;;;7.81;85.21
43147;BME280;28752;48.266;7.402;2023-04-26T02:59:54;99508.16;;;7.78;85.23
43147;BME280;28752;48.266;7.402;2023-04-26T03:02:20;99499.75;;;7.84;84.85
43147;BME280;28752;48.266;7.402;2023-04-26T03:04:45;99492.28;;;7.89;84.54
43147;BME280;28752;48.266;7.402;2023-04-26T03:07:11;99499.81;;;7.94;84.41
43147;BME280;28752;48.266;7.402;2023-04-26T03:09:37;99490.63;;;7.88;83.66
43147;BME280;28752;48.266;7.402;2023-04-26T03:12:06;99490.25;;;7.93;83.04
43147;BME280;28752;48.266;7.402;2023-04-26T03:14:32;99490.63;;;7.88;83.75
43147;BME280;28752;48.266;7.402;2023-04-26T03:16:58;99484.19;;;7.81;84.04
43147;BME280;28752;48.266;7.402;2023-04-26T03:19:23;99483.38;;;7.69;83.86
43147;BME280;28752;48.266;7.402;2023-04-26T03:21:49;99481.41;;;7.82;83.69
43147;BME280;28752;48.266;7.402;2023-04-26T03:24:14;99477.03;;;7.72;83.99
43147;BME280;28752;48.266;7.402;2023-04-26T03:26:39;99471.97;;;7.80;84.06
43147;BME280;28752;48.266;7.402;2023-04-26T03:29:05;99475.06;;;7.85;84.08
43147;BME280;28752;48.266;7.402;2023-04-26T03:31:31;99472.31;;;7.87;83.76
43147;BME280;28752;48.266;7.402;2023-04-26T03:33:56;99476.97;;;7.83;84.47
43147;BME280;28752;48.266;7.402;2023-04-26T03:36:22;99473.63;;;7.81;83.89
43147;BME280;28752;48.266;7.402;2023-04-26T03:38:47;99470.31;;;7.79;84.09
43147;BME280;28752;48.266;7.402;2023-04-26T03:41:12;99473.22;;;7.64;85.10
43147;BME280;28752;48.266;7.402;2023-04-26T03:43:38;99475.88;;;7.64;84.49
43147;BME280;28752;48.266;7.402;2023-04-26T03:46:03;99478.00;;;7.71;83.58
43147;BME280;28752;48.266;7.402;2023-04-26T03:48:29;99474.41;;;7.72;83.63
43147;BME280;28752;48.266;7.402;2023-04-26T03:50:54;99471.97;;;7.80;83.24
43147;BME280;28752;48.266;7.402;2023-04-26T03:53:19;99445.19;;;7.63;82.95
43147;BME280;28752;48.266;7.402;2023-04-26T03:55:45;99463.63;;;7.63;83.14
43147;BME280;28752;48.266;7.402;2023-04-26T03:58:10;99470.66;;;7.74;82.94
43147;BME280;28752;48.266;7.402;2023-04-26T04:00:37;99461.22;;;7.72;83.25
43147;BME280;28752;48.266;7.402;2023-04-26T04:03:03;99465.75;;;7.70;83.56
43147;BME280;28752;48.266;7.402;2023-04-26T04:05:29;99457.41;;;7.64;83.49
43147;BME280;28752;48.266;7.402;2023-04-26T04:07:54;99466.53;;;7.60;83.78
43147;BME280;28752;48.266;7.402;2023-04-26T04:10:21;99466.78;;;7.57;83.61
43147;BME280;28752;48.266;7.402;2023-04-26T04:12:47;99457.84;;;7.49;84.11
43147;BME280;28752;48.266;7.402;2023-04-26T04:15:12;99461.63;;;7.56;83.54
43147;BME280;28752;48.266;7.402;2023-04-26T04:17:38;99466.06;;;7.55;83.87
43147;BME280;28752;48.266;7.402;2023-04-26T04:20:03;99461.75;;;7.54;83.50
43147;BME280;28752;48.266;7.402;2023-04-26T04:22:31;99470.41;;;7.45;83.79
43147;BME280;28752;48.266;7.402;2023-04-26T04:24:57;99472.44;;;7.53;83.34
43147;BME280;28752;48.266;7.402;2023-04-26T04:27:23;99479.31;;;7.44;83.53
43147;BME280;28752;48.266;7.402;2023-04-26T04:29:49;99482.75;;;7.44;83.78
43147;BME280;28752;48.266;7.402;2023-04-26T04:32:14;99480.75;;;7.37;83.87
43147;BME280;28752;48.266;7.402;2023-04-26T04:34:41;99488.41;;;7.40;83.94
43147;BME280;28752;48.266;7.402;2023-04-26T04:37:07;99484.56;;;7.44;83.65
43147;BME280;28752;48.266;7.402;2023-04-26T04:39:32;99491.50;;;7.45;83.74
43147;BME280;28752;48.266;7.402;2023-04-26T04:41:58;99488.38;;;7.51;83.56
43147;BME280;28752;48.266;7.402;2023-04-26T04:44:24;99488.97;;;7.55;83.52
43147;BME280;28752;48.266;7.402;2023-04-26T04:46:51;99490.75;;;7.54;83.54
43147;BME280;28752;48.266;7.402;2023-04-26T04:49:17;99490.88;;;7.53;83.37
43147;BME280;28752;48.266;7.402;2023-04-26T04:51:43;99494.22;;;7.55;83.70
43147;BME280;28752;48.266;7.402;2023-04-26T04:54:13;99492.88;;;7.60;83.58
43147;BME280;28752;48.266;7.402;2023-04-26T04:56:39;99500.63;;;7.73;82.61
43147;BME280;28752;48.266;7.402;2023-04-26T04:59:05;99510.88;;;7.88;82.47
43147;BME280;28752;48.266;7.402;2023-04-26T05:01:31;99512.00;;;8.06;81.70
43147;BME280;28752;48.266;7.402;2023-04-26T05:03:57;99514.88;;;8.24;80.82
43147;BME280;28752;48.266;7.402;2023-04-26T05:06:22;99503.13;;;8.49;80.20
43147;BME280;28752;48.266;7.402;2023-04-26T05:08:48;99511.63;;;8.84;78.23
43147;BME280;28752;48.266;7.402;2023-04-26T05:11:13;99516.53;;;8.88;77.66
43147;BME280;28752;48.266;7.402;2023-04-26T05:13:39;99519.09;;;9.10;75.85
43147;BME280;28752;48.266;7.402;2023-04-26T05:16:04;99521.19;;;9.16;75.85
43147;BME280;28752;48.266;7.402;2023-04-26T05:18:30;99531.09;;;9.33;75.25
43147;BME280;28752;48.266;7.402;2023-04-26T05:20:56;99531.25;;;9.32;74.42
43147;BME280;28752;48.266;7.402;2023-04-26T05:23:22;99540.63;;;9.55;71.77
43147;BME280;28752;48.266;7.402;2023-04-26T05:25:47;99537.81;;;9.37;71.26
43147;BME280;28752;48.266;7.402;2023-04-26T05:28:12;99541.22;;;9.18;70.99
43147;BME280;28752;48.266;7.402;2023-04-26T05:30:38;99560.03;;;9.25;70.62
43147;BME280;28752;48.266;7.402;2023-04-26T05:33:04;99552.97;;;9.04;70.67
43147;BME280;28752;48.266;7.402;2023-04-26T05:35:29;99558.31;;;8.83;71.47
43147;BME280;28752;48.266;7.402;2023-04-26T05:37:55;99558.91;;;8.87;71.31
43147;BME280;28752;48.266;7.402;2023-04-26T05:40:20;99559.56;;;9.20;70.89
43147;BME280;28752;48.266;7.402;2023-04-26T05:42:45;99563.69;;;9.43;68.76
43147;BME280;28752;48.266;7.402;2023-04-26T05:45:11;99567.81;;;9.27;69.30
43147;BME280;28752;48.266;7.402;2023-04-26T05:47:36;99568.03;;;9.14;69.05
43147;BME280;28752;48.266;7.402;2023-04-26T05:50:02;99565.31;;;9.35;68.85
43147;BME280;28752;48.266;7.402;2023-04-26T05:52:28;99571.53;;;9.74;68.03
43147;BME280;28752;48.266;7.402;2023-04-26T05:54:53;99577.78;;;9.64;68.36
43147;BME280;28752;48.266;7.402;2023-04-26T05:57:19;99588.38;;;9.83;68.27
43147;BME280;28752;48.266;7.402;2023-04-26T05:59:44;99577.69;;;10.04;67.83
43147;BME280;28752;48.266;7.402;2023-04-26T06:02:10;99582.44;;;10.40;66.24
43147;BME280;28752;48.266;7.402;2023-04-26T06:04:36;99579.50;;;9.94;66.35
43147;BME280;28752;48.266;7.402;2023-04-26T06:07:01;99581.88;;;10.46;66.88
43147;BME280;28752;48.266;7.402;2023-04-26T06:09:26;99573.06;;;11.12;65.38
43147;BME280;28752;48.266;7.402;2023-04-26T06:11:52;99578.25;;;11.87;63.37
43147;BME280;28752;48.266;7.402;2023-04-26T06:14:17;99565.50;;;12.45;60.92
43147;BME280;28752;48.266;7.402;2023-04-26T06:16:43;99577.22;;;12.16;59.82
43147;BME280;28752;48.266;7.402;2023-04-26T06:19:08;99564.53;;;12.72;60.30
43147;BME280;28752;48.266;7.402;2023-04-26T06:21:33;99567.22;;;12.10;60.08
43147;BME280;28752;48.266;7.402;2023-04-26T06:23:59;99565.41;;;11.65;61.27
43147;BME280;28752;48.266;7.402;2023-04-26T06:26:24;99557.97;;;11.13;62.95
43147;BME280;28752;48.266;7.402;2023-04-26T06:28:50;99560.06;;;10.81;63.66
43147;BME280;28752;48.266;7.402;2023-04-26T06:31:15;99565.53;;;11.17;63.53
43147;BME280;28752;48.266;7.402;2023-04-26T06:33:41;99564.00;;;11.05;64.16
43147;BME280;28752;48.266;7.402;2023-04-26T06:36:10;99569.75;;;10.63;63.81
43147;BME280;28752;48.266;7.402;2023-04-26T06:38:36;99574.72;;;10.76;64.63
43147;BME280;28752;48.266;7.402;2023-04-26T06:41:01;99572.38;;;11.10;64.43
43147;BME280;28752;48.266;7.402;2023-04-26T06:43:26;99572.47;;;11.18;64.34
43147;BME280;28752;48.266;7.402;2023-04-26T06:45:52;99566.09;;;11.85;62.78
43147;BME280;28752;48.266;7.402;2023-04-26T06:48:17;99573.53;;;11.81;62.30
43147;BME280;28752;48.266;7.402;2023-04-26T06:50:42;99567.94;;;12.02;62.20
43147;BME280;28752;48.266;7.402;2023-04-26T06:53:08;99575.13;;;12.28;63.04
43147;BME280;28752;48.266;7.402;2023-04-26T06:55:33;99572.56;;;12.62;62.18
43147;BME280;28752;48.266;7.402;2023-04-26T06:57:59;99573.38;;;12.37;61.20
43147;BME280;28752;48.266;7.402;2023-04-26T07:00:24;99581.34;;;12.19;62.36
43147;BME280;28752;48.266;7.402;2023-04-26T07:02:50;99575.19;;;11.82;62.83
43147;BME280;28752;48.266;7.402;2023-04-26T07:05:15;99583.53;;;11.69;63.93
43147;BME280;28752;48.266;7.402;2023-04-26T07:07:40;99588.41;;;11.64;65.11
43147;BME280;28752;48.266;7.402;2023-04-26T07:10:06;99591.66;;;11.58;64.90
43147;BME280;28752;48.266;7.402;2023-04-26T07:12:32;99590.06;;;11.47;64.93
43147;BME280;28752;48.266;7.402;2023-04-26T07:14:57;99581.59;;;11.34;65.65
43147;BME280;28752;48.266;7.402;2023-04-26T07:17:23;99579.25;;;11.31;65.59
43147;BME280;28752;48.266;7.402;2023-04-26T07:19:48;99578.06;;;11.71;65.65
43147;BME280;28752;48.266;7.402;2023-04-26T07:22:13;99575.75;;;11.58;65.67
43147;BME280;28752;48.266;7.402;2023-04-26T07:24:39;99571.88;;;11.25;65.66
43147;BME280;28752;48.266;7.402;2023-04-26T07:27:04;99569.59;;;11.40;65.44
43147;BME280;28752;48.266;7.402;2023-04-26T07:29:29;99565.94;;;11.86;65.30
43147;BME280;28752;48.266;7.402;2023-04-26T07:31:55;99582.47;;;11.80;64.17
43147;BME280;28752;48.266;7.402;2023-04-26T07:34:21;99573.66;;;11.62;65.17
43147;BME280;28752;48.266;7.402;2023-04-26T07:36:46;99569.53;;;11.49;65.71
43147;BME280;28752;48.266;7.402;2023-04-26T07:39:13;99574.47;;;11.62;66.90
43147;BME280;28752;48.266;7.402;2023-04-26T07:41:39;99571.38;;;11.67;65.08
43147;BME280;28752;48.266;7.402;2023-04-26T07:44:05;99561.59;;;12.13;63.94
43147;BME280;28752;48.266;7.402;2023-04-26T07:46:32;99559.66;;;12.23;62.45
43147;BME280;28752;48.266;7.402;2023-04-26T07:48:59;99557.41;;;12.55;61.73
43147;BME280;28752;48.266;7.402;2023-04-26T07:51:24;99554.53;;;13.01;60.38
43147;BME280;28752;48.266;7.402;2023-04-26T07:53:50;99556.47;;;13.67;60.28
43147;BME280;28752;48.266;7.402;2023-04-26T07:56:16;99560.50;;;13.96;58.70
43147;BME280;28752;48.266;7.402;2023-04-26T07:58:41;99562.59;;;13.52;58.38
43147;BME280;28752;48.266;7.402;2023-04-26T08:01:06;99559.06;;;13.35;58.13
43147;BME280;28752;48.266;7.402;2023-04-26T08:03:32;99550.75;;;13.38;58.49
43147;BME280;28752;48.266;7.402;2023-04-26T08:05:58;99560.97;;;13.67;57.70
43147;BME280;28752;48.266;7.402;2023-04-26T08:08:25;99561.16;;;13.82;56.61
43147;BME280;28752;48.266;7.402;2023-04-26T08:10:51;99556.31;;;13.69;55.92
43147;BME280;28752;48.266;7.402;2023-04-26T08:13:16;99562.19;;;14.71;54.63
43147;BME280;28752;48.266;7.402;2023-04-26T08:15:42;99555.38;;;14.28;54.07
43147;BME280;28752;48.266;7.402;2023-04-26T08:18:07;99546.69;;;14.58;54.95
43147;BME280;28752;48.266;7.402;2023-04-26T08:20:32;99549.63;;;15.05;55.01
43147;BME280;28752;48.266;7.402;2023-04-26T08:22:58;99548.53;;;14.50;54.35
43147;BME280;28752;48.266;7.402;2023-04-26T08:25:24;99556.03;;;14.46;54.47
43147;BME280;28752;48.266;7.402;2023-04-26T08:27:50;99559.38;;;14.65;54.50
43147;BME280;28752;48.266;7.402;2023-04-26T08:30:16;99561.72;;;14.18;55.09
43147;BME280;28752;48.266;7.402;2023-04-26T08:32:41;99553.50;;;13.87;55.63
43147;BME280;28752;48.266;7.402;2023-04-26T08:35:07;99555.59;;;13.16;56.93
43147;BME280;28752;48.266;7.402;2023-04-26T08:37:33;99555.38;;;13.36;57.64
43147;BME280;28752;48.266;7.402;2023-04-26T08:39:59;99564.16;;;13.79;57.53
43147;BME280;28752;48.266;7.402;2023-04-26T08:42:26;99551.28;;;13.15;56.68
43147;BME280;28752;48.266;7.402;2023-04-26T08:44:52;99544.91;;;13.34;57.67
43147;BME280;28752;48.266;7.402;2023-04-26T08:49:52;99543.06;;;14.35;54.85
43147;BME280;28752;48.266;7.402;2023-04-26T08:52:26;99546.34;;;13.79;54.84
43147;BME280;28752;48.266;7.402;2023-04-26T08:54:53;99543.09;;;13.43;56.39
43147;BME280;28752;48.266;7.402;2023-04-26T08:57:20;99554.00;;;14.81;55.71
43147;BME280;28752;48.266;7.402;2023-04-26T08:59:46;99544.13;;;14.98;55.00
43147;BME280;28752;48.266;7.402;2023-04-26T09:02:17;99544.06;;;14.50;54.15
43147;BME280;28752;48.266;7.402;2023-04-26T09:04:44;99551.53;;;14.63;54.02
43147;BME280;28752;48.266;7.402;2023-04-26T09:07:15;99545.72;;;14.27;55.62
43147;BME280;28752;48.266;7.402;2023-04-26T09:09:47;99542.50;;;13.74;56.01
43147;BME280;28752;48.266;7.402;2023-04-26T09:12:16;99537.31;;;13.56;57.14
43147;BME280;28752;48.266;7.402;2023-04-26T09:14:42;99537.38;;;13.29;57.13
43147;BME280;28752;48.266;7.402;2023-04-26T09:17:27;99556.41;;;13.08;57.84
43147;BME280;28752;48.266;7.402;2023-04-26T09:19:53;99554.06;;;13.40;56.34
43147;BME280;28752;48.266;7.402;2023-04-26T09:22:34;99554.00;;;13.74;55.88
43147;BME280;28752;48.266;7.402;2023-04-26T09:25:02;99545.94;;;13.49;55.97
43147;BME280;28752;48.266;7.402;2023-04-26T09:27:39;99554.03;;;14.24;54.95
43147;BME280;28752;48.266;7.402;2023-04-26T09:30:08;99549.06;;;14.12;53.58
43147;BME280;28752;48.266;7.402;2023-04-26T09:32:57;99542.22;;;14.26;53.44
43147;BME280;28752;48.266;7.402;2023-04-26T09:37:57;99532.72;;;14.40;52.99
43147;BME280;28752;48.266;7.402;2023-04-26T09:40:24;99540.06;;;14.38;52.90
43147;BME280;28752;48.266;7.402;2023-04-26T09:43:04;99544.22;;;14.24;50.54
43147;BME280;28752;48.266;7.402;2023-04-26T09:45:32;99546.56;;;13.94;52.95
43147;BME280;28752;48.266;7.402;2023-04-26T09:48:15;99547.38;;;14.19;50.75
43147;BME280;28752;48.266;7.402;2023-04-26T09:50:41;99532.50;;;14.91;50.83
43147;BME280;28752;48.266;7.402;2023-04-26T09:53:07;99535.38;;;14.73;48.57
43147;BME280;28752;48.266;7.402;2023-04-26T09:55:33;99545.53;;;14.53;47.95
43147;BME280;28752;48.266;7.402;2023-04-26T09:57:58;99538.06;;;14.32;47.59
43147;BME280;28752;48.266;7.402;2023-04-26T10:00:25;99535.00;;;14.92;47.55
43147;BME280;28752;48.266;7.402;2023-04-26T10:02:52;99531.13;;;15.03;49.39
43147;BME280;28752;48.266;7.402;2023-04-26T10:05:19;99535.44;;;15.04;49.61
43147;BME280;28752;48.266;7.402;2023-04-26T10:07:45;99533.28;;;15.08;48.60
43147;BME280;28752;48.266;7.402;2023-04-26T10:10:11;99534.03;;;15.25;48.06
43147;BME280;28752;48.266;7.402;2023-04-26T10:12:37;99530.06;;;14.73;47.09
43147;BME280;28752;48.266;7.402;2023-04-26T10:15:05;99531.03;;;14.72;48.51
43147;BME280;28752;48.266;7.402;2023-04-26T10:17:32;99517.25;;;15.48;47.80
43147;BME280;28752;48.266;7.402;2023-04-26T10:19:58;99529.41;;;16.05;48.53
43147;BME280;28752;48.266;7.402;2023-04-26T10:22:32;99528.00;;;16.32;47.93
43147;BME280;28752;48.266;7.402;2023-04-26T10:25:00;99529.00;;;16.69;47.75
43147;BME280;28752;48.266;7.402;2023-04-26T10:27:46;99516.25;;;16.56;45.14
43147;BME280;28752;48.266;7.402;2023-04-26T10:30:16;99511.06;;;16.25;44.87
43147;BME280;28752;48.266;7.402;2023-04-26T10:35:31;99504.47;;;17.25;47.15
43147;BME280;28752;48.266;7.402;2023-04-26T10:40:32;99512.38;;;18.35;43.04
43147;BME280;28752;48.266;7.402;2023-04-26T10:45:45;99500.28;;;18.45;45.14
43147;BME280;28752;48.266;7.402;2023-04-26T10:48:21;99490.19;;;18.19;42.91
43147;BME280;28752;48.266;7.402;2023-04-26T10:55:59;99495.13;;;16.31;45.57
43147;BME280;28752;48.266;7.402;2023-04-26T10:58:32;99487.63;;;17.10;45.49
43147;BME280;28752;48.266;7.402;2023-04-26T11:01:07;99484.81;;;17.33;43.93
43147;BME280;28752;48.266;7.402;2023-04-26T11:03:35;99479.31;;;16.75;44.89
43147;BME280;28752;48.266;7.402;2023-04-26T11:06:05;99471.66;;;16.72;43.70
43147;BME280;28752;48.266;7.402;2023-04-26T11:08:31;99473.50;;;16.71;44.58
43147;BME280;28752;48.266;7.402;2023-04-26T11:13:31;99469.75;;;17.32;46.08
43147;BME280;28752;48.266;7.402;2023-04-26T11:16:01;99459.94;;;16.73;43.63
43147;BME280;28752;48.266;7.402;2023-04-26T11:18:29;99466.09;;;16.28;44.49
43147;BME280;28752;48.266;7.402;2023-04-26T11:20:55;99470.94;;;16.10;45.20
43147;BME280;28752;48.266;7.402;2023-04-26T11:23:22;99469.22;;;16.32;47.35
43147;BME280;28752;48.266;7.402;2023-04-26T11:25:47;99464.38;;;16.80;46.50
43147;BME280;28752;48.266;7.402;2023-04-26T11:28:13;99464.53;;;17.23;46.51
43147;BME280;28752;48.266;7.402;2023-04-26T11:30:39;99466.63;;;16.92;45.60
43147;BME280;28752;48.266;7.402;2023-04-26T11:33:04;99461.13;;;17.15;46.12
43147;BME280;28752;48.266;7.402;2023-04-26T11:35:37;99461.16;;;17.58;45.52
43147;BME280;28752;48.266;7.402;2023-04-26T11:38:04;99452.50;;;17.56;43.94
43147;BME280;28752;48.266;7.402;2023-04-26T11:40:32;99449.47;;;17.22;44.04
43147;BME280;28752;48.266;7.402;2023-04-26T11:43:04;99445.28;;;17.13;44.06
43147;BME280;28752;48.266;7.402;2023-04-26T11:45:31;99447.09;;;17.49;44.00
43147;BME280;28752;48.266;7.402;2023-04-26T11:47:57;99441.41;;;17.59;45.13
43147;BME280;28752;48.266;7.402;2023-04-26T11:50:24;99441.47;;;17.22;44.78
43147;BME280;28752;48.266;7.402;2023-04-26T11:52:55;99443.72;;;17.40;45.56
43147;BME280;28752;48.266;7.402;2023-04-26T11:55:28;99439.25;;;17.48;45.30
43147;BME280;28752;48.266;7.402;2023-04-26T11:57:56;99431.28;;;17.54;45.19
43147;BME280;28752;48.266;7.402;2023-04-26T12:00:23;99432.56;;;17.37;43.07
43147;BME280;28752;48.266;7.402;2023-04-26T12:02:49;99439.88;;;17.71;43.34
43147;BME280;28752;48.266;7.402;2023-04-26T12:05:24;99435.88;;;17.61;42.40
43147;BME280;28752;48.266;7.402;2023-04-26T12:07:54;99427.50;;;17.27;43.12
43147;BME280;28752;48.266;7.402;2023-04-26T12:12:55;99423.81;;;17.93;42.69
43147;BME280;28752;48.266;7.402;2023-04-26T12:15:24;99431.97;;;18.06;42.59
43147;BME280;28752;48.266;7.402;2023-04-26T12:17:51;99427.06;;;17.67;42.23
43147;BME280;28752;48.266;7.402;2023-04-26T12:20:17;99424.25;;;17.10;42.23
43147;BME280;28752;48.266;7.402;2023-04-26T12:22:55;99426.00;;;17.39;43.27
43147;BME280;28752;48.266;7.402;2023-04-26T12:25:21;99432.56;;;17.58;42.81
43147;BME280;28752;48.266;7.402;2023-04-26T12:27:46;99424.00;;;17.91;41.98
43147;BME280;28752;48.266;7.402;2023-04-26T12:30:11;99427.81;;;17.82;41.45
43147;BME280;28752;48.266;7.402;2023-04-26T12:32:37;99433.13;;;17.97;42.08
43147;BME280;28752;48.266;7.402;2023-04-26T12:35:02;99437.09;;;17.80;41.84
43147;BME280;28752;48.266;7.402;2023-04-26T12:37:28;99436.31;;;17.64;43.88
43147;BME280;28752;48.266;7.402;2023-04-26T12:39:53;99431.47;;;17.74;41.12
43147;BME280;28752;48.266;7.402;2023-04-26T12:42:18;99432.81;;;17.64;42.90
43147;BME280;28752;48.266;7.402;2023-04-26T12:44:44;99423.03;;;17.77;43.09
43147;BME280;28752;48.266;7.402;2023-04-26T12:47:09;99420.66;;;18.11;43.34
43147;BME280;28752;48.266;7.402;2023-04-26T12:49:34;99412.19;;;18.36;43.28
43147;BME280;28752;48.266;7.402;2023-04-26T12:52:00;99408.91;;;18.82;40.44
43147;BME280;28752;48.266;7.402;2023-04-26T12:54:25;99417.19;;;18.87;40.12
43147;BME280;28752;48.266;7.402;2023-04-26T12:56:51;99417.72;;;19.11;39.78
43147;BME280;28752;48.266;7.402;2023-04-26T12:59:16;99425.19;;;19.29;39.39
43147;BME280;28752;48.266;7.402;2023-04-26T13:01:42;99418.19;;;19.34;40.32
43147;BME280;28752;48.266;7.402;2023-04-26T13:04:07;99416.13;;;19.37;38.48
43147;BME280;28752;48.266;7.402;2023-04-26T13:06:33;99426.38;;;19.13;39.00
43147;BME280;28752;48.266;7.402;2023-04-26T13:08:59;99419.47;;;18.90;41.79
43147;BME280;28752;48.266;7.402;2023-04-26T13:11:25;99425.25;;;18.87;41.23
43147;BME280;28752;48.266;7.402;2023-04-26T13:13:51;99419.56;;;19.10;40.51
43147;BME280;28752;48.266;7.402;2023-04-26T13:16:16;99417.97;;;18.81;41.16
43147;BME280;28752;48.266;7.402;2023-04-26T13:18:41;99416.84;;;18.97;39.83
43147;BME280;28752;48.266;7.402;2023-04-26T13:21:07;99413.97;;;19.05;39.56
43147;BME280;28752;48.266;7.402;2023-04-26T13:23:32;99411.53;;;18.69;40.70
43147;BME280;28752;48.266;7.402;2023-04-26T13:25:57;99408.47;;;18.37;41.22